createdAt,value
2023-04-09T00:00:15.558Z,7.1
2023-04-09T00:07:47.970Z,7.1
2023-04-09T00:15:30.103Z,7.3
2023-04-09T00:23:02.752Z,6.3
2023-04-09T00:30:35.162Z,8.4
2023-04-09T00:38:07.570Z,5.7
2023-04-09T00:45:40.016Z,8.6
2023-04-09T00:53:12.447Z,7.6
2023-04-09T01:00:44.908Z,8.0
2023-04-09T01:08:17.377Z,7.4
2023-04-09T01:15:49.807Z,7.1
2023-04-09T01:23:22.211Z,7.4
2023-04-09T01:30:54.753Z,9.4
2023-04-09T01:38:27.382Z,11.0
2023-04-09T01:45:59.867Z,9.9
2023-04-09T01:53:32.312Z,9.4
2023-04-09T02:01:04.728Z,9.0
2023-04-09T02:08:37.156Z,9.8
2023-04-09T02:16:09.560Z,7.7
2023-04-09T02:23:41.969Z,8.1
2023-04-09T02:31:14.414Z,9.6
2023-04-09T02:38:46.862Z,9.1
2023-04-09T02:46:19.362Z,9.7
2023-04-09T02:53:51.788Z,9.1
2023-04-09T03:01:24.279Z,8.1
2023-04-09T03:08:56.736Z,7.4
2023-04-09T03:16:29.164Z,8.0
2023-04-09T03:24:01.615Z,10.0
2023-04-09T03:31:34.123Z,9.8
2023-04-09T03:39:06.602Z,8.6
2023-04-09T03:46:39.044Z,9.4
2023-04-09T03:54:11.488Z,9.4
2023-04-09T04:01:43.953Z,7.8
2023-04-09T04:09:16.452Z,8.5
2023-04-09T04:16:48.860Z,8.5
2023-04-09T04:24:21.310Z,7.5
2023-04-09T04:31:53.762Z,7.8
2023-04-09T04:39:26.226Z,8.0
2023-04-09T04:46:58.654Z,9.0
2023-04-09T04:54:31.076Z,7.6
2023-04-09T05:02:03.544Z,7.9
2023-04-09T05:09:35.998Z,7.9
2023-04-09T05:17:08.396Z,7.8
2023-04-09T05:24:40.795Z,8.2
2023-04-09T05:32:13.240Z,8.8
2023-04-09T05:39:45.670Z,6.9
2023-04-09T05:47:18.111Z,8.0
2023-04-09T05:54:50.530Z,6.6
2023-04-09T06:02:23.195Z,6.9
2023-04-09T06:09:55.791Z,6.0
2023-04-09T06:17:28.242Z,6.7
2023-04-09T06:25:00.700Z,8.2
2023-04-09T06:32:37.703Z,6.5
2023-04-09T06:40:15.511Z,7.3
2023-04-09T06:47:47.979Z,6.8
2023-04-09T06:55:20.409Z,9.0
2023-04-09T06:59:10.570Z,7.5
2023-04-09T06:59:58.179Z,8.0
2023-04-09T07:07:30.610Z,8.7
2023-04-09T07:15:03.049Z,6.9
2023-04-09T07:22:35.477Z,8.1
2023-04-09T07:30:07.965Z,8.3
2023-04-09T07:37:40.393Z,8.2
2023-04-09T07:45:12.826Z,7.5
2023-04-09T07:52:45.246Z,6.1
2023-04-09T08:00:17.681Z,7.3
2023-04-09T08:07:50.152Z,7.6
2023-04-09T08:15:22.567Z,6.5
2023-04-09T08:22:54.976Z,5.5
2023-04-09T08:30:27.436Z,7.0
2023-04-09T08:37:59.894Z,6.7
2023-04-09T08:45:32.312Z,5.5
2023-04-09T08:53:04.766Z,5.7
2023-04-09T09:00:37.181Z,5.0
2023-04-09T09:08:09.687Z,6.2
2023-04-09T09:15:42.147Z,6.4
2023-04-09T09:23:14.627Z,5.0
2023-04-09T09:38:19.642Z,6.3
2023-04-09T09:45:52.099Z,5.0
2023-04-09T09:53:24.573Z,5.4
2023-04-09T10:00:56.992Z,7.6
2023-04-09T10:08:29.388Z,6.5
2023-04-09T10:16:01.951Z,6.1
2023-04-09T10:23:34.379Z,6.0
2023-04-09T10:31:06.949Z,6.3
2023-04-09T10:38:39.396Z,6.2
2023-04-09T10:46:11.877Z,5.8
2023-04-09T10:53:44.321Z,6.3
2023-04-09T11:01:16.775Z,7.5
2023-04-09T11:08:49.217Z,5.8
2023-04-09T11:16:24.688Z,6.6
2023-04-09T11:23:58.466Z,6.3
2023-04-09T11:31:30.894Z,7.3
2023-04-09T11:39:03.367Z,7.5
2023-04-09T11:46:35.858Z,5.9
2023-04-09T11:54:08.345Z,7.6
2023-04-09T12:01:40.869Z,7.6
2023-04-09T12:09:13.340Z,7.6
2023-04-09T12:16:45.922Z,6.9
2023-04-09T12:24:18.466Z,8.0
2023-04-09T12:31:50.948Z,7.4
2023-04-09T12:39:23.394Z,7.5
2023-04-09T12:46:55.826Z,7.5
2023-04-09T12:54:28.328Z,6.5
2023-04-09T13:02:01.000Z,7.9
2023-04-09T13:09:33.534Z,7.7
2023-04-09T13:17:05.988Z,8.5
2023-04-09T13:24:38.450Z,7.7
2023-04-09T13:32:11.192Z,6.8
2023-04-09T13:39:43.779Z,7.0
2023-04-09T13:47:16.197Z,7.7
2023-04-09T13:54:48.775Z,8.6
2023-04-09T14:02:21.273Z,7.2
2023-04-09T14:09:53.856Z,7.7
2023-04-09T14:17:26.403Z,6.8
2023-04-09T14:24:58.853Z,7.6
2023-04-09T14:32:31.587Z,7.9
2023-04-09T14:40:04.165Z,8.2
2023-04-09T14:47:36.582Z,7.7
2023-04-09T14:55:09.074Z,8.0
2023-04-09T15:02:41.849Z,8.2
2023-04-09T15:10:14.516Z,6.6
2023-04-09T15:17:46.971Z,9.8
2023-04-09T15:25:19.433Z,7.1
2023-04-09T15:32:51.944Z,8.6
2023-04-09T15:40:24.414Z,8.4
2023-04-09T15:47:56.884Z,8.4
2023-04-09T15:55:29.432Z,8.2
2023-04-09T16:03:01.866Z,8.3
2023-04-09T16:10:34.272Z,9.0
2023-04-09T16:18:06.780Z,9.4
2023-04-09T16:25:39.217Z,9.0
2023-04-09T16:33:11.639Z,8.5
2023-04-09T16:40:44.058Z,7.8
2023-04-09T16:48:16.508Z,8.0
2023-04-09T16:55:48.981Z,8.3
2023-04-09T17:03:21.436Z,9.4
2023-04-09T17:10:53.885Z,10.7
2023-04-09T17:18:26.362Z,10.1
2023-04-09T17:25:58.780Z,8.3
2023-04-09T17:33:31.201Z,8.1
2023-04-09T17:41:04.757Z,10.5
2023-04-09T17:48:38.771Z,11.3
2023-04-09T17:56:11.194Z,11.3
2023-04-09T18:03:43.783Z,10.9
2023-04-09T18:11:16.455Z,8.8
2023-04-09T18:18:48.909Z,8.0
2023-04-09T18:26:21.332Z,8.2
2023-04-09T18:33:53.747Z,9.8
2023-04-09T18:41:26.182Z,8.7
2023-04-09T18:48:59.406Z,9.0
2023-04-09T18:56:31.819Z,9.5
2023-04-09T19:04:04.308Z,7.9
2023-04-09T19:11:36.762Z,7.6
2023-04-09T19:19:09.193Z,7.7
2023-04-09T19:26:41.633Z,7.5
2023-04-09T19:34:14.064Z,8.2
2023-04-09T19:41:46.491Z,8.0
2023-04-09T19:49:18.910Z,6.7
2023-04-09T19:56:51.325Z,6.9
2023-04-09T20:04:23.745Z,7.6
2023-04-09T20:11:56.266Z,7.7
2023-04-09T20:19:28.687Z,7.0
2023-04-09T20:27:01.112Z,6.2
2023-04-09T20:34:33.540Z,6.9
2023-04-09T20:42:05.950Z,7.2
2023-04-09T20:49:38.375Z,5.7
2023-04-09T20:57:12.654Z,6.7
2023-04-09T21:04:46.356Z,6.8
2023-04-09T21:12:18.755Z,7.1
2023-04-09T21:19:51.175Z,6.9
2023-04-09T21:27:23.613Z,6.9
2023-04-09T21:34:56.041Z,6.3
2023-04-09T21:42:28.466Z,7.3
2023-04-09T21:50:00.889Z,7.6
2023-04-09T21:57:33.322Z,7.9
2023-04-09T22:05:05.823Z,6.7
2023-04-09T22:12:38.402Z,7.4
2023-04-09T22:20:10.869Z,9.1
2023-04-09T22:27:43.315Z,7.1
2023-04-09T22:35:15.756Z,7.5
2023-04-09T22:42:48.178Z,7.6
2023-04-09T22:50:20.620Z,7.1
2023-04-09T22:57:53.047Z,7.9
2023-04-09T23:05:25.468Z,9.3
2023-04-09T23:12:57.890Z,9.0
2023-04-09T23:20:30.803Z,8.4
2023-04-09T23:28:03.332Z,8.9
2023-04-09T23:35:35.769Z,7.8
2023-04-09T23:43:08.204Z,8.7
2023-04-09T23:50:40.634Z,7.4
2023-04-09T23:58:13.114Z,7.7
